Time,TemperatureF,DewpointF,PressureIn,WindDirection,WindDirectionDegrees,WindSpeedMPH,WindSpeedGustMPH,Humidity,HourlyPrecipIn,Conditions,Clouds,dailyrainin,SoftwareType,DateUTC
2013-05-17 00:03:00,58.0,54.0,-100.00,West,265,1.0,2.0,86,0.00,,,-99.99,,2013-05-17 04:03:00,
2013-05-17 00:13:00,57.0,54.0,-100.00,NW,305,4.0,5.0,88,0.00,,,-99.99,,2013-05-17 04:13:00,
2013-05-17 00:23:00,57.0,54.0,-100.00,SE,125,1.0,3.0,89,0.00,,,-99.99,,2013-05-17 04:23:00,
2013-05-17 00:33:00,57.0,54.0,-100.00,WSW,245,1.0,2.0,90,0.00,,,-99.99,,2013-05-17 04:33:00,
2013-05-17 00:43:00,57.0,54.0,-100.00,SE,130,0.0,2.0,91,0.00,,,-99.99,,2013-05-17 04:43:00,
2013-05-17 00:53:00,57.0,54.0,-100.00,SSW,200,0.0,2.0,92,0.00,,,-99.99,,2013-05-17 04:53:00,
2013-05-17 01:03:00,56.0,55.0,-100.00,SE,130,0.0,2.0,92,0.00,,,-99.99,,2013-05-17 05:03:00,
2013-05-17 01:14:00,56.0,54.0,-100.00,SSW,210,0.0,1.0,92,0.00,,,-99.99,,2013-05-17 05:14:00,
2013-05-17 01:22:00,56.0,55.0,-100.00,WSW,240,0.0,0.0,93,0.00,,,-99.99,,2013-05-17 05:22:00,
2013-05-17 01:32:00,56.0,55.0,-100.00,WSW,240,1.0,2.0,93,0.00,,,-99.99,,2013-05-17 05:32:00,
2013-05-17 01:43:00,56.0,54.0,-100.00,SSE,155,0.0,1.0,93,0.00,,,-99.99,,2013-05-17 05:43:00,
2013-05-17 01:52:00,56.0,55.0,-100.00,SSW,200,0.0,0.0,94,0.00,,,-99.99,,2013-05-17 05:52:00,
2013-05-17 02:02:00,56.0,55.0,-100.00,SW,220,0.0,1.0,94,0.00,,,-99.99,,2013-05-17 06:02:00,
2013-05-17 02:11:00,56.0,55.0,-100.00,WSW,255,0.0,1.0,94,0.00,,,-99.99,,2013-05-17 06:11:00,
2013-05-17 02:22:00,57.0,56.0,-100.00,South,180,0.0,2.0,95,0.00,,,-99.99,,2013-05-17 06:22:00,
2013-05-17 02:32:00,58.0,57.0,-100.00,SE,130,0.0,0.0,95,0.00,,,-99.99,,2013-05-17 06:32:00,
2013-05-17 02:42:00,59.0,57.0,-100.00,SSW,195,0.0,1.0,94,0.00,,,-99.99,,2013-05-17 06:42:00,
2013-05-17 02:52:00,60.0,58.0,-100.00,NE,50,0.0,0.0,94,0.00,,,-99.99,,2013-05-17 06:52:00,
2013-05-17 03:02:00,60.0,58.0,-100.00,ESE,115,0.0,1.0,94,0.00,,,-99.99,,2013-05-17 07:02:00,
2013-05-17 03:11:00,61.0,59.0,-100.00,NW,315,0.0,0.0,94,0.00,,,-99.99,,2013-05-17 07:11:00,
2013-05-17 03:21:00,61.0,60.0,-100.00,SSE,155,0.0,1.0,94,0.00,,,-99.99,,2013-05-17 07:21:00,
2013-05-17 03:32:00,61.0,60.0,-100.00,SSW,210,0.0,1.0,95,0.00,,,-99.99,,2013-05-17 07:32:00,
2013-05-17 03:43:00,62.0,60.0,-100.00,SW,230,0.0,1.0,95,0.00,,,-99.99,,2013-05-17 07:43:00,
2013-05-17 03:53:00,62.0,60.0,-100.00,ESE,120,1.0,1.0,95,0.00,,,-99.99,,2013-05-17 07:53:00,
2013-05-17 04:12:00,62.0,61.0,-100.00,East,100,1.0,2.0,96,0.00,,,-99.99,,2013-05-17 08:12:00,
2013-05-17 04:23:00,62.0,61.0,-100.00,East,80,1.0,2.0,96,0.00,,,-99.99,,2013-05-17 08:23:00,
2013-05-17 04:33:00,62.0,61.0,-100.00,East,85,2.0,6.0,96,0.00,,,-99.99,,2013-05-17 08:33:00,
2013-05-17 04:42:00,62.0,61.0,-100.00,East,90,2.0,6.0,97,0.00,,,-99.99,,2013-05-17 08:42:00,
2013-05-17 04:51:00,62.0,61.0,-100.00,East,85,4.0,8.0,96,0.00,,,-99.99,,2013-05-17 08:51:00,
2013-05-17 05:02:00,62.0,61.0,-100.00,NE,45,4.0,6.0,96,0.00,,,-99.99,,2013-05-17 09:02:00,
2013-05-17 05:12:00,62.0,61.0,-100.00,NNE,15,2.0,4.0,96,0.00,,,-99.99,,2013-05-17 09:12:00,
2013-05-17 05:22:00,62.0,61.0,-100.00,NE,50,1.0,4.0,96,0.00,,,-99.99,,2013-05-17 09:22:00,
2013-05-17 05:33:00,62.0,61.0,-100.00,NE,50,1.0,4.0,96,0.00,,,-99.99,,2013-05-17 09:33:00,
2013-05-17 05:42:00,62.0,61.0,-100.00,ENE,60,2.0,4.0,96,0.00,,,-99.99,,2013-05-17 09:42:00,
2013-05-17 05:53:00,62.0,62.0,-100.00,ENE,65,1.0,3.0,96,0.00,,,-99.99,,2013-05-17 09:53:00,
2013-05-17 06:03:00,62.0,61.0,-100.00,NNE,20,1.0,3.0,96,0.00,,,-99.99,,2013-05-17 10:03:00,
2013-05-17 06:12:00,62.0,61.0,-100.00,NE,55,2.0,4.0,96,0.00,,,-99.99,,2013-05-17 10:12:00,
2013-05-17 06:23:00,62.0,61.0,-100.00,ESE,120,0.0,4.0,96,0.00,,,-99.99,,2013-05-17 10:23:00,
2013-05-17 06:33:00,63.0,61.0,-100.00,ENE,75,1.0,6.0,96,0.00,,,-99.99,,2013-05-17 10:33:00,
2013-05-17 06:42:00,63.0,61.0,-100.00,NE,50,1.0,6.0,95,0.00,,,-99.99,,2013-05-17 10:42:00,
2013-05-17 06:53:00,63.0,61.0,-100.00,NW,310,1.0,6.0,95,0.00,,,-99.99,,2013-05-17 10:53:00,
2013-05-17 07:02:00,63.0,61.0,-100.00,NW,310,0.0,3.0,94,0.00,,,-99.99,,2013-05-17 11:02:00,
2013-05-17 07:12:00,63.0,61.0,-100.00,NW,305,1.0,2.0,94,0.00,,,-99.99,,2013-05-17 11:12:00,
2013-05-17 07:23:00,63.0,61.0,-100.00,NW,310,2.0,3.0,94,0.00,,,-99.99,,2013-05-17 11:23:00,
2013-05-17 07:34:00,63.0,61.0,-100.00,NNW,335,2.0,6.0,93,0.00,,,-99.99,,2013-05-17 11:34:00,
2013-05-17 07:42:00,63.0,61.0,-100.00,North,350,2.0,5.0,93,0.00,,,-99.99,,2013-05-17 11:42:00,
2013-05-17 07:53:00,63.0,61.0,-100.00,NW,325,2.0,6.0,92,0.00,,,-99.99,,2013-05-17 11:53:00,
2013-05-17 08:03:00,63.0,61.0,-100.00,NW,320,3.0,4.0,92,0.00,,,-99.99,,2013-05-17 12:03:00,
2013-05-17 08:12:00,64.0,61.0,-100.00,NW,320,2.0,6.0,92,0.00,,,-99.99,,2013-05-17 12:12:00,
2013-05-17 08:23:00,64.0,61.0,-100.00,NNW,340,2.0,5.0,90,0.00,,,-99.99,,2013-05-17 12:23:00,
2013-05-17 08:32:00,64.0,61.0,-100.00,NW,315,3.0,6.0,89,0.00,,,-99.99,,2013-05-17 12:32:00,
2013-05-17 08:43:00,65.0,61.0,-100.00,North,10,2.0,4.0,88,0.00,,,-99.99,,2013-05-17 12:43:00,
2013-05-17 08:53:00,65.0,61.0,-100.00,North,350,1.0,4.0,88,0.00,,,-99.99,,2013-05-17 12:53:00,
2013-05-17 09:03:00,65.0,61.0,-100.00,NNE,30,2.0,5.0,88,0.00,,,-99.99,,2013-05-17 13:03:00,
2013-05-17 09:12:00,65.0,61.0,-100.00,NNE,25,1.0,6.0,86,0.00,,,-99.99,,2013-05-17 13:12:00,
2013-05-17 09:23:00,65.0,60.0,-100.00,NW,320,2.0,6.0,83,0.00,,,-99.99,,2013-05-17 13:23:00,
2013-05-17 09:33:00,66.0,60.0,-100.00,WNW,295,2.0,6.0,81,0.00,,,-99.99,,2013-05-17 13:33:00,
2013-05-17 09:42:00,66.0,60.0,-100.00,NW,315,2.0,4.0,79,0.00,,,-99.99,,2013-05-17 13:42:00,
2013-05-17 09:52:00,66.0,60.0,-100.00,North,350,4.0,6.0,78,0.00,,,-99.99,,2013-05-17 13:52:00,
2013-05-17 10:02:00,66.0,59.0,-100.00,NW,325,6.0,9.0,77,0.00,,,-99.99,,2013-05-17 14:02:00,
2013-05-17 10:13:00,67.0,60.0,-100.00,NW,325,3.0,7.0,77,0.00,,,-99.99,,2013-05-17 14:13:00,
2013-05-17 10:22:00,68.0,60.0,-100.00,NNE,25,2.0,6.0,74,0.00,,,-99.99,,2013-05-17 14:22:00,
2013-05-17 10:34:00,68.0,59.0,-100.00,NW,310,4.0,9.0,72,0.00,,,-99.99,,2013-05-17 14:34:00,
2013-05-17 10:43:00,70.0,59.0,-100.00,NNW,335,2.0,6.0,68,0.00,,,-99.99,,2013-05-17 14:43:00,
2013-05-17 10:53:00,70.0,59.0,-100.00,North,5,2.0,6.0,69,0.00,,,-99.99,,2013-05-17 14:53:00,
2013-05-17 11:03:00,71.0,59.0,-100.00,NE,50,1.0,6.0,66,0.00,,,-99.99,,2013-05-17 15:03:00,
2013-05-17 11:14:00,71.0,60.0,-100.00,WNW,295,1.0,6.0,68,0.00,,,-99.99,,2013-05-17 15:14:00,
2013-05-17 11:25:00,72.0,60.0,-100.00,ENE,60,1.0,4.0,65,0.00,,,-99.99,,2013-05-17 15:25:00,
2013-05-17 11:37:00,71.0,60.0,-100.00,ENE,75,2.0,6.0,67,0.00,,,-99.99,,2013-05-17 15:37:00,
2013-05-17 11:47:00,71.0,60.0,-100.00,ESE,115,2.0,6.0,67,0.00,,,-99.99,,2013-05-17 15:47:00,
2013-05-17 11:56:00,71.0,60.0,-100.00,ENE,65,5.0,9.0,67,0.00,,,-99.99,,2013-05-17 15:56:00,
2013-05-17 12:07:00,73.0,59.0,-100.00,ESE,105,2.0,7.0,61,0.00,,,-99.99,,2013-05-17 16:07:00,
2013-05-17 12:14:00,73.0,60.0,-100.00,WSW,255,1.0,4.0,62,0.00,,,-99.99,,2013-05-17 16:14:00,
2013-05-17 12:26:00,72.0,59.0,-100.00,East,85,4.0,6.0,63,0.00,,,-99.99,,2013-05-17 16:26:00,
2013-05-17 12:37:00,72.0,60.0,-100.00,NNE,25,2.0,6.0,64,0.00,,,-99.99,,2013-05-17 16:37:00,
2013-05-17 12:49:00,73.0,59.0,-100.00,SW,230,3.0,6.0,62,0.00,,,-99.99,,2013-05-17 16:49:00,
2013-05-17 12:56:00,74.0,59.0,-100.00,SE,140,1.0,6.0,60,0.00,,,-99.99,,2013-05-17 16:56:00,
2013-05-17 13:08:00,75.0,58.0,-100.00,NE,55,1.0,6.0,56,0.00,,,-99.99,,2013-05-17 17:08:00,
2013-05-17 13:19:00,75.0,58.0,-100.00,WSW,245,2.0,4.0,55,0.00,,,-99.99,,2013-05-17 17:19:00,
2013-05-17 13:30:00,76.0,60.0,-100.00,SSW,205,2.0,4.0,58,0.00,,,-99.99,,2013-05-17 17:30:00,
2013-05-17 13:40:00,78.0,-99.9,-100.00,SSW,195,2.0,6.0,54,0.00,,,-99.99,,2013-05-17 17:40:00,
2013-05-17 13:49:00,77.0,62.0,-100.00,ENE,70,3.0,8.0,59,0.00,,,-99.99,,2013-05-17 17:49:00,
2013-05-17 14:00:00,77.0,59.0,-100.00,East,90,1.0,9.0,54,0.00,,,-99.99,,2013-05-17 18:00:00,
2013-05-17 14:09:00,78.0,59.0,-100.00,ENE,65,1.0,8.0,53,0.00,,,-99.99,,2013-05-17 18:09:00,
2013-05-17 14:20:00,78.0,58.0,-100.00,WSW,255,2.0,6.0,50,0.00,,,-99.99,,2013-05-17 18:20:00,
2013-05-17 14:30:00,78.0,59.0,-100.00,NW,325,3.0,7.0,52,0.00,,,-99.99,,2013-05-17 18:30:00,
2013-05-17 14:40:00,78.0,-99.9,-100.00,NNE,30,5.0,9.0,51,0.00,,,-99.99,,2013-05-17 18:40:00,
2013-05-17 14:50:00,-999.0,-99.9,-100.00,ESE,110,4.0,6.0,50,0.00,,,-99.99,,2013-05-17 18:50:00,
2013-05-17 15:00:00,79.0,58.0,-100.00,NW,325,2.0,5.0,47,0.00,,,-99.99,,2013-05-17 19:00:00,
2013-05-17 15:10:00,80.0,59.0,-100.00,East,95,3.0,6.0,48,0.00,,,-99.99,,2013-05-17 19:10:00,
2013-05-17 15:20:00,80.0,58.0,-100.00,NE,40,2.0,5.0,46,0.00,,,-99.99,,2013-05-17 19:20:00,
2013-05-17 15:30:00,79.0,56.0,-100.00,North,10,4.0,6.0,45,0.00,,,-99.99,,2013-05-17 19:30:00,
2013-05-17 15:40:00,80.0,55.0,-100.00,SE,125,4.0,6.0,42,0.00,,,-99.99,,2013-05-17 19:40:00,
2013-05-17 15:51:00,82.0,57.0,-100.00,NNE,25,1.0,6.0,43,0.00,,,-99.99,,2013-05-17 19:51:00,
2013-05-17 16:00:00,81.0,-99.9,-100.00,NNE,30,1.0,6.0,38,0.00,,,-99.99,,2013-05-17 20:00:00,
2013-05-17 16:09:00,81.0,53.0,-100.00,South,190,1.0,9.0,37,0.00,,,-99.99,,2013-05-17 20:09:00,
2013-05-17 16:20:00,81.0,53.0,-100.00,SE,135,5.0,9.0,37,0.00,,,-99.99,,2013-05-17 20:20:00,
2013-05-17 16:30:00,81.0,51.0,-100.00,South,170,2.0,6.0,35,0.00,,,-99.99,,2013-05-17 20:30:00,
2013-05-17 16:40:00,81.0,51.0,-100.00,NNE,25,4.0,7.0,34,0.00,,,-99.99,,2013-05-17 20:40:00,
2013-05-17 16:50:00,82.0,52.0,-100.00,WSW,245,1.0,7.0,35,0.00,,,-99.99,,2013-05-17 20:50:00,
2013-05-17 16:58:00,82.0,53.0,-100.00,SE,125,4.0,7.0,36,0.00,,,-99.99,,2013-05-17 20:58:00,
2013-05-17 17:07:00,82.0,52.0,-100.00,ENE,65,5.0,8.0,36,0.00,,,-99.99,,2013-05-17 21:07:00,
2013-05-17 17:17:00,83.0,52.0,-100.00,SE,130,0.0,7.0,33,0.00,,,-99.99,,2013-05-17 21:17:00,
2013-05-17 17:26:00,83.0,53.0,-100.00,NNW,335,2.0,4.0,35,0.00,,,-99.99,,2013-05-17 21:26:00,
2013-05-17 17:39:00,83.0,52.0,-100.00,East,85,3.0,6.0,34,0.00,,,-99.99,,2013-05-17 21:39:00,
2013-05-17 17:49:00,83.0,52.0,-100.00,NE,40,1.0,6.0,34,0.00,,,-99.99,,2013-05-17 21:49:00,
2013-05-17 17:57:00,82.0,53.0,-100.00,SSW,200,3.0,7.0,36,0.00,,,-99.99,,2013-05-17 21:57:00,
2013-05-17 18:07:00,82.0,50.0,-100.00,SE,125,5.0,8.0,32,0.00,,,-99.99,,2013-05-17 22:07:00,
2013-05-17 18:17:00,82.0,50.0,-100.00,SE,130,4.0,7.0,33,0.00,,,-99.99,,2013-05-17 22:17:00,
2013-05-17 18:28:00,81.0,50.0,-100.00,SE,130,2.0,6.0,33,0.00,,,-99.99,,2013-05-17 22:28:00,
2013-05-17 18:38:00,81.0,51.0,-100.00,SSW,200,1.0,5.0,34,0.00,,,-99.99,,2013-05-17 22:38:00,
2013-05-17 18:47:00,81.0,50.0,-100.00,WSW,240,2.0,5.0,33,0.00,,,-99.99,,2013-05-17 22:47:00,
2013-05-17 18:54:00,82.0,51.0,-100.00,WSW,255,1.0,3.0,34,0.00,,,-99.99,,2013-05-17 22:54:00,
2013-05-17 19:04:00,81.0,50.0,-100.00,South,175,1.0,4.0,34,0.00,,,-99.99,,2013-05-17 23:04:00,
2013-05-17 19:13:00,80.0,51.0,-100.00,SW,220,1.0,3.0,36,0.00,,,-99.99,,2013-05-17 23:13:00,
2013-05-17 19:23:00,80.0,52.0,-100.00,SSW,210,1.0,3.0,38,0.00,,,-99.99,,2013-05-17 23:23:00,
2013-05-17 19:37:00,79.0,54.0,-100.00,SW,225,0.0,3.0,41,0.00,,,-99.99,,2013-05-17 23:37:00,
2013-05-17 19:47:00,79.0,54.0,-100.00,SW,225,0.0,3.0,41,0.00,,,-99.99,,2013-05-17 23:47:00,
2013-05-17 19:54:00,77.0,58.0,-100.00,SE,140,1.0,2.0,50,0.00,,,-99.99,,2013-05-17 23:54:00,
2013-05-17 20:02:00,76.0,55.0,-100.00,SW,220,0.0,3.0,49,0.00,,,-99.99,,2013-05-18 00:02:00,
2013-05-17 20:14:00,74.0,56.0,-100.00,SSW,210,1.0,2.0,52,0.00,,,-99.99,,2013-05-18 00:14:00,
2013-05-17 20:22:00,73.0,56.0,-100.00,SE,145,0.0,2.0,55,0.00,,,-99.99,,2013-05-18 00:22:00,
2013-05-17 20:33:00,71.0,56.0,-100.00,SSE,155,0.0,2.0,57,0.00,,,-99.99,,2013-05-18 00:33:00,
2013-05-17 20:45:00,71.0,57.0,-100.00,South,185,1.0,2.0,61,0.00,,,-99.99,,2013-05-18 00:45:00,
2013-05-17 20:54:00,70.0,55.0,-100.00,SW,225,1.0,3.0,59,0.00,,,-99.99,,2013-05-18 00:54:00,
2013-05-17 21:03:00,69.0,55.0,-100.00,SW,220,1.0,3.0,60,0.00,,,-99.99,,2013-05-18 01:03:00,
2013-05-17 21:13:00,69.0,55.0,-100.00,SW,225,0.0,2.0,62,0.00,,,-99.99,,2013-05-18 01:13:00,
2013-05-17 21:24:00,68.0,55.0,-100.00,SW,220,1.0,3.0,63,0.00,,,-99.99,,2013-05-18 01:24:00,
2013-05-17 21:32:00,69.0,56.0,-100.00,NNE,15,0.0,2.0,65,0.00,,,-99.99,,2013-05-18 01:32:00,
2013-05-17 21:43:00,68.0,56.0,-100.00,SW,215,0.0,2.0,67,0.00,,,-99.99,,2013-05-18 01:43:00,
2013-05-17 21:52:00,67.0,56.0,-100.00,SSW,195,0.0,1.0,68,0.00,,,-99.99,,2013-05-18 01:52:00,
2013-05-17 22:02:00,66.0,56.0,-100.00,WSW,240,1.0,2.0,69,0.00,,,-99.99,,2013-05-18 02:02:00,
2013-05-17 22:12:00,65.0,56.0,-100.00,South,175,0.0,3.0,71,0.00,,,-99.99,,2013-05-18 02:12:00,
2013-05-17 22:22:00,65.0,56.0,-100.00,WSW,240,1.0,2.0,72,0.00,,,-99.99,,2013-05-18 02:22:00,
2013-05-17 22:32:00,64.0,56.0,-100.00,East,95,0.0,2.0,73,0.00,,,-99.99,,2013-05-18 02:32:00,
2013-05-17 22:42:00,65.0,56.0,-100.00,ENE,60,0.0,2.0,73,0.00,,,-99.99,,2013-05-18 02:42:00,
2013-05-17 22:53:00,65.0,56.0,-100.00,North,10,0.0,1.0,73,0.00,,,-99.99,,2013-05-18 02:53:00,
2013-05-17 23:03:00,66.0,54.0,-100.00,WNW,285,1.0,4.0,64,0.00,,,-99.99,,2013-05-18 03:03:00,
2013-05-17 23:12:00,66.0,52.0,-100.00,West,260,2.0,6.0,61,0.00,,,-99.99,,2013-05-18 03:12:00,
2013-05-17 23:22:00,66.0,53.0,-100.00,West,265,1.0,6.0,62,0.00,,,-99.99,,2013-05-18 03:22:00,
2013-05-17 23:33:00,66.0,53.0,-100.00,West,275,2.0,6.0,63,0.00,,,-99.99,,2013-05-18 03:33:00,
2013-05-17 23:43:00,66.0,52.0,-100.00,West,265,1.0,3.0,61,0.00,,,-99.99,,2013-05-18 03:43:00,
2013-05-17 23:53:00,66.0,52.0,-100.00,WSW,255,1.0,3.0,60,0.00,,,-99.99,,2013-05-18 03:53:00,